createdAt,value
2019-02-21T00:00:42.334Z,7.00
2019-02-21T00:03:45.875Z,7.00
2019-02-21T00:06:49.446Z,7.00
2019-02-21T00:09:52.887Z,7.00
2019-02-21T00:12:56.358Z,7.00
2019-02-21T00:15:59.857Z,7.10
2019-02-21T00:19:03.384Z,7.10
2019-02-21T00:22:07.788Z,7.10
2019-02-21T00:25:11.182Z,7.10
2019-02-21T00:28:14.720Z,7.10
2019-02-21T00:31:18.189Z,7.10
2019-02-21T00:34:21.619Z,7.10
2019-02-21T00:37:25.082Z,7.20
2019-02-21T00:40:28.593Z,7.10
2019-02-21T00:43:32.023Z,7.10
2019-02-21T00:46:35.590Z,7.00
2019-02-21T00:49:39.036Z,7.00
2019-02-21T00:52:42.491Z,7.00
2019-02-21T00:55:46.003Z,6.90
2019-02-21T00:58:49.440Z,6.90
2019-02-21T01:01:52.999Z,6.90
2019-02-21T01:04:56.442Z,6.80
2019-02-21T01:07:59.900Z,6.90
2019-02-21T01:11:03.510Z,6.90
2019-02-21T01:14:08.078Z,6.80
2019-02-21T01:17:11.747Z,6.90
2019-02-21T01:20:15.252Z,6.90
2019-02-21T01:23:18.747Z,7.00
2019-02-21T01:26:22.252Z,7.00
2019-02-21T01:29:25.587Z,7.00
2019-02-21T01:32:29.152Z,7.00
2019-02-21T01:35:32.555Z,7.00
2019-02-21T01:38:35.948Z,7.00
2019-02-21T01:41:39.455Z,7.00
2019-02-21T01:44:42.896Z,7.00
2019-02-21T01:47:46.358Z,6.90
2019-02-21T01:50:49.862Z,6.90
2019-02-21T01:53:53.264Z,6.90
2019-02-21T01:56:56.763Z,6.90
2019-02-21T02:00:00.323Z,6.90
2019-02-21T02:03:03.875Z,7.00
2019-02-21T02:06:07.295Z,7.00
2019-02-21T02:09:12.243Z,7.00
2019-02-21T02:12:15.711Z,7.00
2019-02-21T02:15:19.338Z,7.00
2019-02-21T02:18:22.705Z,7.00
2019-02-21T02:21:26.111Z,7.00
2019-02-21T02:24:29.758Z,7.00
2019-02-21T02:27:33.126Z,7.00
2019-02-21T02:30:36.415Z,7.00
2019-02-21T02:33:40.022Z,7.00
2019-02-21T02:36:43.423Z,7.00
2019-02-21T02:39:46.924Z,7.00
2019-02-21T02:42:50.328Z,7.00
2019-02-21T02:45:53.725Z,7.10
2019-02-21T02:48:57.196Z,7.10
2019-02-21T02:52:00.732Z,7.10
2019-02-21T02:55:04.340Z,7.10
2019-02-21T02:58:07.881Z,7.10
2019-02-21T03:01:11.473Z,7.10
2019-02-21T03:04:15.103Z,7.10
2019-02-21T03:07:18.588Z,7.10
2019-02-21T03:10:22.193Z,7.20
2019-02-21T03:13:25.696Z,7.10
2019-02-21T03:16:29.388Z,7.20
2019-02-21T03:19:32.864Z,7.20
2019-02-21T03:22:36.306Z,7.20
2019-02-21T03:25:39.909Z,7.20
2019-02-21T03:28:43.476Z,7.20
2019-02-21T03:31:54.338Z,7.20
2019-02-21T03:34:52.219Z,7.20
2019-02-21T03:37:55.729Z,7.20
2019-02-21T03:40:59.254Z,7.10
2019-02-21T03:44:02.729Z,7.00
2019-02-21T03:47:06.035Z,6.90
2019-02-21T03:50:09.749Z,6.80
2019-02-21T03:53:14.156Z,6.70
2019-02-21T03:56:17.805Z,6.70
2019-02-21T03:59:21.468Z,6.70
2019-02-21T04:02:26.036Z,6.70
2019-02-21T04:05:29.541Z,6.70
2019-02-21T04:08:33.149Z,6.80
2019-02-21T04:11:36.602Z,6.80
2019-02-21T04:14:40.238Z,6.80
2019-02-21T04:17:43.849Z,6.80
2019-02-21T04:20:47.351Z,6.80
2019-02-21T04:23:50.815Z,6.80
2019-02-21T04:26:54.252Z,6.80
2019-02-21T04:29:57.815Z,6.90
2019-02-21T04:33:01.224Z,6.90
2019-02-21T04:36:04.866Z,6.90
2019-02-21T04:39:08.328Z,7.00
2019-02-21T04:42:11.765Z,7.00
2019-02-21T04:45:15.229Z,7.00
2019-02-21T04:48:18.634Z,7.00
2019-02-21T04:51:22.168Z,7.00
2019-02-21T04:54:25.634Z,6.90
2019-02-21T04:57:29.072Z,6.90
2019-02-21T05:00:32.532Z,6.80
2019-02-21T05:03:36.036Z,6.80
2019-02-21T05:06:39.478Z,6.60
2019-02-21T05:09:42.940Z,6.40
2019-02-21T05:12:46.740Z,6.30
2019-02-21T05:15:50.258Z,6.20
2019-02-21T05:18:53.775Z,6.10
2019-02-21T05:21:57.293Z,6.00
2019-02-21T05:25:01.685Z,5.90
2019-02-21T05:28:42.531Z,6.00
2019-02-21T05:32:11.104Z,6.00
2019-02-21T05:35:52.052Z,6.00
2019-02-21T05:39:11.604Z,5.90
2019-02-21T05:42:25.288Z,5.90
2019-02-21T05:45:40.460Z,5.90
2019-02-21T05:49:01.561Z,5.90
2019-02-21T05:52:24.337Z,5.90
2019-02-21T05:55:34.456Z,5.90
2019-02-21T05:58:53.319Z,5.80
2019-02-21T06:02:34.230Z,5.80
2019-02-21T06:05:50.714Z,5.80
2019-02-21T06:09:13.450Z,5.80
2019-02-21T06:12:42.468Z,5.70
2019-02-21T06:16:15.468Z,5.80
2019-02-21T06:19:35.449Z,5.70
2019-02-21T06:22:59.364Z,5.80
2019-02-21T06:26:31.232Z,5.70
2019-02-21T06:29:45.037Z,5.70
2019-02-21T06:32:48.572Z,5.70
2019-02-21T06:35:51.936Z,5.70
2019-02-21T06:38:55.440Z,5.70
2019-02-21T06:42:00.108Z,5.70
2019-02-21T06:45:04.082Z,5.80
2019-02-21T06:48:07.520Z,5.90
2019-02-21T06:51:11.107Z,5.90
2019-02-21T06:54:14.488Z,6.00
2019-02-21T06:57:17.991Z,6.00
2019-02-21T07:00:21.536Z,6.10
2019-02-21T07:03:25.034Z,6.10
2019-02-21T07:06:31.959Z,6.10
2019-02-21T07:09:33.735Z,6.20
2019-02-21T07:12:37.237Z,6.20
2019-02-21T07:15:40.744Z,6.20
2019-02-21T07:18:44.287Z,6.20
2019-02-21T07:21:47.874Z,6.20
2019-02-21T07:24:54.620Z,6.20
2019-02-21T07:27:58.470Z,6.30
2019-02-21T07:31:02.141Z,6.40
2019-02-21T07:34:07.104Z,6.40
2019-02-21T07:37:18.541Z,6.50
2019-02-21T07:40:19.969Z,6.60
2019-02-21T07:43:21.517Z,6.50
2019-02-21T07:46:24.980Z,6.50
2019-02-21T07:49:28.488Z,6.50
2019-02-21T07:52:32.025Z,6.40
2019-02-21T07:55:35.487Z,6.40
2019-02-21T07:58:39.706Z,6.40
2019-02-21T08:01:43.212Z,6.40
2019-02-21T08:04:46.621Z,6.40
2019-02-21T08:07:50.132Z,6.40
2019-02-21T08:10:53.519Z,6.40
2019-02-21T08:13:57.016Z,6.50
2019-02-21T08:17:01.437Z,6.50
2019-02-21T08:20:08.697Z,6.60
2019-02-21T08:23:12.437Z,6.70
2019-02-21T08:26:15.839Z,6.70
2019-02-21T08:29:20.726Z,6.60
2019-02-21T08:32:31.636Z,6.70
2019-02-21T08:35:35.051Z,6.70
2019-02-21T08:38:38.441Z,6.70
2019-02-21T08:41:42.020Z,6.70
2019-02-21T08:44:45.592Z,6.70
2019-02-21T08:47:49.057Z,6.70
2019-02-21T08:50:52.501Z,6.60
2019-02-21T08:53:55.996Z,6.60
2019-02-21T08:56:59.464Z,6.60
2019-02-21T09:00:03.214Z,6.60
2019-02-21T09:03:06.664Z,6.70
2019-02-21T09:06:10.110Z,6.70
2019-02-21T09:09:13.716Z,6.70
2019-02-21T09:12:17.185Z,6.70
2019-02-21T09:15:20.616Z,6.70
2019-02-21T09:18:24.076Z,6.70
2019-02-21T09:21:27.625Z,6.70
2019-02-21T09:24:39.181Z,6.60
2019-02-21T09:27:36.432Z,6.70
2019-02-21T09:30:42.005Z,6.60
2019-02-21T09:33:45.283Z,6.70
2019-02-21T09:36:48.680Z,6.80
2019-02-21T09:39:52.120Z,6.90
2019-02-21T09:42:55.580Z,7.00
2019-02-21T09:45:59.124Z,7.10
2019-02-21T09:49:03.106Z,7.10
2019-02-21T09:52:06.734Z,7.10
2019-02-21T09:55:11.480Z,7.30
2019-02-21T09:58:15.140Z,7.40
2019-02-21T10:01:18.587Z,7.70
2019-02-21T10:04:31.842Z,7.90
2019-02-21T10:07:27.384Z,8.10
2019-02-21T10:10:30.824Z,8.00
2019-02-21T10:13:34.600Z,8.00
2019-02-21T10:16:38.051Z,7.90
2019-02-21T10:19:41.545Z,7.90
2019-02-21T10:22:45.207Z,8.10
2019-02-21T10:25:48.944Z,8.30
2019-02-21T10:28:52.424Z,8.10
2019-02-21T10:31:55.908Z,8.00
2019-02-21T10:34:59.317Z,8.00
2019-02-21T10:38:02.716Z,8.20
2019-02-21T10:41:08.777Z,8.40
2019-02-21T10:44:11.369Z,8.50
2019-02-21T10:47:14.867Z,8.60
2019-02-21T10:50:18.572Z,8.90
2019-02-21T10:53:22.016Z,9.20
2019-02-21T10:56:25.576Z,9.80
2019-02-21T10:59:29.080Z,10.00
2019-02-21T11:02:32.587Z,10.10
2019-02-21T11:05:36.332Z,10.10
2019-02-21T11:08:39.792Z,9.80
2019-02-21T11:11:43.296Z,10.20
2019-02-21T11:14:47.830Z,11.10
2019-02-21T11:17:51.525Z,10.90
2019-02-21T11:20:54.932Z,11.40
2019-02-21T11:23:58.328Z,11.40
2019-02-21T11:27:01.830Z,11.60
2019-02-21T11:30:06.144Z,11.90
2019-02-21T11:33:09.548Z,11.90
2019-02-21T11:36:13.092Z,11.50
2019-02-21T11:39:16.657Z,11.30
2019-02-21T11:42:20.057Z,11.50
2019-02-21T11:45:23.553Z,11.20
2019-02-21T11:48:27.062Z,11.70
2019-02-21T11:51:30.465Z,12.50
2019-02-21T11:55:00.429Z,12.00
2019-02-21T12:07:58.114Z,12.00
2019-02-21T12:11:01.622Z,11.60
2019-02-21T12:14:05.166Z,11.50
2019-02-21T12:17:08.764Z,11.70
2019-02-21T12:20:12.231Z,11.50
2019-02-21T12:23:17.698Z,11.60
2019-02-21T12:26:20.985Z,11.10
2019-02-21T12:29:25.401Z,11.00
2019-02-21T12:32:28.941Z,10.90
2019-02-21T12:35:32.400Z,10.60
2019-02-21T12:38:35.944Z,10.40
2019-02-21T12:41:39.504Z,10.30
2019-02-21T12:44:43.015Z,10.20
2019-02-21T12:47:53.007Z,10.40
2019-02-21T12:50:51.860Z,10.40
2019-02-21T12:53:55.317Z,10.60
2019-02-21T12:56:58.860Z,10.50
2019-02-21T13:00:02.413Z,10.60
2019-02-21T13:03:07.708Z,10.70
2019-02-21T13:06:11.156Z,10.70
2019-02-21T13:09:14.772Z,10.70
2019-02-21T13:12:18.326Z,10.50
2019-02-21T13:15:21.732Z,10.60
2019-02-21T13:18:25.272Z,10.60
2019-02-21T13:21:28.724Z,10.50
2019-02-21T13:24:32.173Z,10.40
2019-02-21T13:27:35.675Z,10.50
2019-02-21T13:30:39.332Z,10.50
2019-02-21T13:33:42.873Z,10.50
2019-02-21T13:36:46.343Z,10.50
2019-02-21T13:39:49.748Z,10.50
2019-02-21T13:42:53.300Z,10.60
2019-02-21T13:45:56.853Z,10.40
2019-02-21T13:49:00.353Z,10.30
2019-02-21T13:52:03.964Z,10.20
2019-02-21T13:55:57.043Z,10.10
2019-02-21T13:59:21.417Z,10.10
2019-02-21T14:02:24.952Z,10.10
2019-02-21T14:05:28.424Z,10.10
2019-02-21T14:08:31.860Z,10.00
2019-02-21T14:11:35.525Z,9.90
2019-02-21T14:14:42.362Z,9.80
2019-02-21T14:17:46.609Z,9.80
2019-02-21T14:20:50.381Z,9.80
2019-02-21T14:23:53.835Z,9.70
2019-02-21T14:26:57.296Z,9.70
2019-02-21T14:30:00.742Z,9.60
2019-02-21T14:33:04.184Z,9.50
2019-02-21T14:36:15.226Z,9.50
2019-02-21T14:39:13.025Z,9.40
2019-02-21T14:42:42.391Z,9.40
2019-02-21T14:45:45.836Z,9.40
2019-02-21T14:48:49.336Z,9.20
2019-02-21T14:51:53.020Z,9.20
2019-02-21T14:54:56.511Z,9.10
2019-02-21T14:58:00.144Z,9.10
2019-02-21T15:01:05.699Z,9.00
2019-02-21T15:04:10.237Z,9.00
2019-02-21T15:07:13.700Z,9.00
2019-02-21T15:10:17.091Z,8.90
2019-02-21T15:13:21.679Z,8.90
2019-02-21T15:16:25.318Z,8.90
2019-02-21T15:19:28.824Z,8.90
2019-02-21T15:22:32.426Z,8.90
2019-02-21T15:25:35.872Z,8.90
2019-02-21T15:28:39.380Z,8.90
2019-02-21T15:31:42.935Z,8.90
2019-02-21T15:34:47.300Z,8.90
2019-02-21T15:37:50.865Z,9.00
2019-02-21T15:40:54.480Z,9.00
2019-02-21T15:43:58.012Z,9.00
2019-02-21T15:47:01.476Z,9.00
2019-02-21T15:50:05.499Z,9.00
2019-02-21T15:53:08.888Z,9.00
2019-02-21T15:56:12.389Z,9.10
2019-02-21T15:59:15.992Z,9.10
2019-02-21T16:02:19.496Z,9.00
2019-02-21T16:05:23.000Z,8.90
2019-02-21T16:08:26.504Z,8.80
2019-02-21T16:11:30.064Z,8.80
2019-02-21T16:14:33.502Z,8.80
2019-02-21T16:17:37.127Z,8.70
2019-02-21T16:20:41.046Z,8.70
2019-02-21T16:23:44.316Z,8.80
2019-02-21T16:26:48.874Z,8.70
2019-02-21T16:29:52.349Z,8.70
2019-02-21T16:32:56.772Z,8.70
2019-02-21T16:36:00.630Z,8.70
2019-02-21T16:39:05.072Z,8.70
2019-02-21T16:42:10.257Z,8.70
2019-02-21T16:45:13.956Z,8.60
2019-02-21T16:48:17.457Z,8.60
2019-02-21T16:51:22.215Z,8.60
2019-02-21T16:54:25.794Z,8.50
2019-02-21T16:57:29.454Z,8.50
2019-02-21T17:00:47.378Z,8.50
2019-02-21T17:03:38.284Z,8.50
2019-02-21T17:06:41.881Z,8.50
2019-02-21T17:09:47.100Z,8.50
2019-02-21T17:12:50.808Z,8.50
2019-02-21T17:16:01.467Z,8.50
2019-02-21T17:19:05.191Z,8.50
2019-02-21T17:22:08.985Z,8.50
2019-02-21T17:25:14.995Z,8.50
2019-02-21T17:28:19.212Z,8.40
2019-02-21T17:31:23.332Z,8.40
2019-02-21T17:34:28.681Z,8.40
2019-02-21T17:37:32.136Z,8.40
2019-02-21T17:40:35.672Z,8.40
2019-02-21T17:43:39.236Z,8.30
2019-02-21T17:46:43.138Z,8.40
2019-02-21T17:49:47.480Z,8.30
2019-02-21T17:52:51.215Z,8.30
2019-02-21T17:55:54.743Z,8.30
2019-02-21T17:58:58.339Z,8.30
2019-02-21T18:02:01.976Z,8.30
2019-02-21T18:05:05.388Z,8.30
2019-02-21T18:08:08.948Z,8.30
2019-02-21T18:11:12.760Z,8.20
2019-02-21T18:14:16.263Z,8.20
2019-02-21T18:17:19.664Z,8.20
2019-02-21T18:20:23.201Z,8.20
2019-02-21T18:23:26.868Z,8.20
2019-02-21T18:26:32.029Z,8.20
2019-02-21T18:29:35.712Z,8.20
2019-02-21T18:32:41.064Z,8.20
2019-02-21T18:35:45.630Z,8.20
2019-02-21T18:38:49.388Z,8.30
2019-02-21T18:41:52.900Z,8.20
2019-02-21T18:44:56.340Z,8.30
2019-02-21T18:47:59.800Z,8.30
2019-02-21T18:51:03.355Z,8.30
2019-02-21T18:54:06.803Z,8.30
2019-02-21T18:57:12.412Z,8.30
2019-02-21T19:00:17.120Z,8.30
2019-02-21T19:03:20.696Z,8.30
2019-02-21T19:06:24.249Z,8.40
2019-02-21T19:09:27.695Z,8.40
2019-02-21T19:12:31.204Z,8.40
2019-02-21T19:15:34.853Z,8.50
2019-02-21T19:18:38.410Z,8.50
2019-02-21T19:21:41.916Z,8.50
2019-02-21T19:24:45.417Z,8.50
2019-02-21T19:27:48.812Z,8.60
2019-02-21T19:30:56.863Z,8.60
2019-02-21T19:34:00.333Z,8.60
2019-02-21T19:37:03.832Z,8.60
2019-02-21T19:40:07.648Z,8.60
2019-02-21T19:43:11.048Z,8.60
2019-02-21T19:46:14.485Z,8.60
2019-02-21T19:49:18.058Z,8.60
2019-02-21T19:52:21.448Z,8.60
2019-02-21T19:55:25.088Z,8.60
2019-02-21T19:58:28.560Z,8.60
2019-02-21T20:01:32.159Z,8.60
2019-02-21T20:04:35.700Z,8.60
2019-02-21T20:07:39.269Z,8.60
2019-02-21T20:10:42.813Z,8.60
2019-02-21T20:13:46.376Z,8.60
2019-02-21T20:16:49.927Z,8.70
2019-02-21T20:19:53.376Z,8.60
2019-02-21T20:22:56.779Z,8.60
2019-02-21T20:26:00.397Z,8.60
2019-02-21T20:29:04.084Z,8.60
2019-02-21T20:32:07.584Z,8.60
2019-02-21T20:35:11.076Z,8.60
2019-02-21T20:38:15.641Z,8.60
2019-02-21T20:41:19.374Z,8.50
2019-02-21T20:44:23.077Z,8.60
2019-02-21T20:47:26.762Z,8.60
2019-02-21T20:50:30.447Z,8.60
2019-02-21T20:53:34.384Z,8.60
2019-02-21T20:56:38.100Z,8.60
2019-02-21T20:59:41.564Z,8.60
2019-02-21T21:02:45.003Z,8.60
2019-02-21T21:05:48.493Z,8.60
2019-02-21T21:08:53.003Z,8.60
2019-02-21T21:11:56.432Z,8.60
2019-02-21T21:14:59.892Z,8.60
2019-02-21T21:18:03.228Z,8.60
2019-02-21T21:21:06.692Z,8.60
2019-02-21T21:24:10.195Z,8.60
2019-02-21T21:27:13.840Z,8.60
2019-02-21T21:30:17.363Z,8.60
2019-02-21T21:33:21.098Z,8.60
2019-02-21T21:36:24.720Z,8.60
2019-02-21T21:39:29.148Z,8.60
2019-02-21T21:42:32.680Z,8.60
2019-02-21T21:45:36.148Z,8.50
2019-02-21T21:48:39.589Z,8.60
2019-02-21T21:51:43.185Z,8.60
2019-02-21T21:54:46.656Z,8.50
2019-02-21T21:57:50.299Z,8.50
2019-02-21T22:00:53.903Z,8.60
2019-02-21T22:03:57.368Z,8.60
2019-02-21T22:07:00.904Z,8.60
2019-02-21T22:10:05.505Z,8.60
2019-02-21T22:13:09.001Z,8.60
2019-02-21T22:16:13.459Z,8.60
2019-02-21T22:19:16.936Z,8.60
2019-02-21T22:22:20.529Z,8.60
2019-02-21T22:25:23.936Z,8.60
2019-02-21T22:28:27.535Z,8.60
2019-02-21T22:31:31.820Z,8.60
2019-02-21T22:34:35.256Z,8.60
2019-02-21T22:37:38.759Z,8.60
2019-02-21T22:40:43.228Z,8.50
2019-02-21T22:43:46.790Z,8.50
2019-02-21T22:48:02.736Z,8.60
2019-02-21T22:51:06.332Z,8.50
2019-02-21T22:54:09.901Z,8.50
2019-02-21T22:57:13.448Z,8.50
2019-02-21T23:01:09.476Z,8.50
2019-02-21T23:04:25.679Z,8.50
2019-02-21T23:08:02.463Z,8.50
2019-02-21T23:11:06.065Z,8.50
2019-02-21T23:14:09.523Z,8.50
2019-02-21T23:17:13.272Z,8.40
2019-02-21T23:20:16.732Z,8.50
2019-02-21T23:23:20.173Z,8.50
2019-02-21T23:26:23.673Z,8.40
2019-02-21T23:29:27.141Z,8.40
2019-02-21T23:32:30.780Z,8.40
2019-02-21T23:35:34.340Z,8.40
2019-02-21T23:38:37.875Z,8.40
2019-02-21T23:41:41.568Z,8.40
2019-02-21T23:44:45.159Z,8.40
2019-02-21T23:47:49.971Z,8.40
2019-02-21T23:50:53.656Z,8.30
2019-02-21T23:54:03.082Z,8.30
2019-02-21T23:57:02.584Z,8.30
